sensor_id;sensor_type;location;lat;lon;timestamp;P1;durP1;ratioP1;P2;durP2;ratioP2
50355;SDS011;36264;51.296;-0.602;2023-04-01T00:00:29;4.88;;;1.98;;
50355;SDS011;36264;51.296;-0.602;2023-04-01T00:02:55;4.30;;;1.88;;
50355;SDS011;36264;51.296;-0.602;2023-04-01T00:05:21;4.40;;;2.20;;
50355;SDS011;36264;51.296;-0.602;2023-04-01T00:07:49;3.28;;;1.75;;
50355;SDS011;36264;51.296;-0.602;2023-04-01T00:10:15;4.45;;;2.00;;
50355;SDS011;36264;51.296;-0.602;2023-04-01T00:12:40;4.10;;;1.92;;
50355;SDS011;36264;51.296;-0.602;2023-04-01T00:15:07;3.95;;;1.80;;
50355;SDS011;36264;51.296;-0.602;2023-04-01T00:17:33;3.63;;;1.80;;
50355;SDS011;36264;51.296;-0.602;2023-04-01T00:19:59;4.57;;;2.20;;
50355;SDS011;36264;51.296;-0.602;2023-04-01T00:22:24;4.47;;;1.95;;
50355;SDS011;36264;51.296;-0.602;2023-04-01T00:24:51;4.78;;;2.10;;
50355;SDS011;36264;51.296;-0.602;2023-04-01T00:27:16;3.55;;;1.90;;
50355;SDS011;36264;51.296;-0.602;2023-04-01T00:29:42;4.47;;;1.90;;
50355;SDS011;36264;51.296;-0.602;2023-04-01T00:32:09;3.95;;;2.00;;
50355;SDS011;36264;51.296;-0.602;2023-04-01T00:34:35;3.28;;;1.70;;
50355;SDS011;36264;51.296;-0.602;2023-04-01T00:37:00;3.85;;;2.10;;
50355;SDS011;36264;51.296;-0.602;2023-04-01T00:39:28;5.40;;;1.98;;
50355;SDS011;36264;51.296;-0.602;2023-04-01T00:41:54;3.50;;;1.88;;
50355;SDS011;36264;51.296;-0.602;2023-04-01T00:44:26;6.07;;;2.45;;
50355;SDS011;36264;51.296;-0.602;2023-04-01T00:46:53;5.43;;;2.22;;
50355;SDS011;36264;51.296;-0.602;2023-04-01T00:49:19;5.07;;;2.10;;
50355;SDS011;36264;51.296;-0.602;2023-04-01T00:51:48;3.58;;;1.63;;
50355;SDS011;36264;51.296;-0.602;2023-04-01T00:54:17;3.40;;;1.73;;
50355;SDS011;36264;51.296;-0.602;2023-04-01T00:56:50;3.13;;;1.92;;
50355;SDS011;36264;51.296;-0.602;2023-04-01T00:59:25;4.15;;;1.85;;
50355;SDS011;36264;51.296;-0.602;2023-04-01T01:01:54;4.05;;;1.67;;
50355;SDS011;36264;51.296;-0.602;2023-04-01T01:04:27;3.38;;;1.58;;
50355;SDS011;36264;51.296;-0.602;2023-04-01T01:10:01;5.57;;;2.00;;
50355;SDS011;36264;51.296;-0.602;2023-04-01T01:28:51;3.33;;;1.80;;
50355;SDS011;36264;51.296;-0.602;2023-04-01T01:31:23;3.38;;;1.95;;
50355;SDS011;36264;51.296;-0.602;2023-04-01T01:36:41;2.45;;;1.60;;
50355;SDS011;36264;51.296;-0.602;2023-04-01T01:39:10;3.15;;;1.63;;
50355;SDS011;36264;51.296;-0.602;2023-04-01T01:41:37;3.80;;;1.95;;
50355;SDS011;36264;51.296;-0.602;2023-04-01T01:44:06;4.53;;;1.88;;
50355;SDS011;36264;51.296;-0.602;2023-04-01T01:46:36;3.40;;;1.70;;
50355;SDS011;36264;51.296;-0.602;2023-04-01T01:49:04;4.72;;;1.77;;
50355;SDS011;36264;51.296;-0.602;2023-04-01T01:51:32;3.70;;;2.00;;
50355;SDS011;36264;51.296;-0.602;2023-04-01T01:53:58;2.92;;;1.60;;
50355;SDS011;36264;51.296;-0.602;2023-04-01T01:56:24;4.10;;;1.85;;
50355;SDS011;36264;51.296;-0.602;2023-04-01T01:58:55;5.40;;;1.90;;
50355;SDS011;36264;51.296;-0.602;2023-04-01T02:01:25;2.90;;;1.75;;
50355;SDS011;36264;51.296;-0.602;2023-04-01T02:03:54;2.67;;;1.60;;
50355;SDS011;36264;51.296;-0.602;2023-04-01T02:06:22;3.88;;;1.65;;
50355;SDS011;36264;51.296;-0.602;2023-04-01T02:08:54;2.40;;;1.50;;
50355;SDS011;36264;51.296;-0.602;2023-04-01T02:11:45;3.17;;;1.50;;
50355;SDS011;36264;51.296;-0.602;2023-04-01T02:14:22;2.75;;;1.60;;
50355;SDS011;36264;51.296;-0.602;2023-04-01T02:16:55;3.42;;;1.85;;
50355;SDS011;36264;51.296;-0.602;2023-04-01T02:19:27;2.08;;;1.45;;
50355;SDS011;36264;51.296;-0.602;2023-04-01T02:21:59;2.80;;;1.50;;
50355;SDS011;36264;51.296;-0.602;2023-04-01T02:24:28;3.33;;;1.80;;
50355;SDS011;36264;51.296;-0.602;2023-04-01T02:26:56;3.33;;;1.67;;
50355;SDS011;36264;51.296;-0.602;2023-04-01T02:29:22;3.20;;;1.50;;
50355;SDS011;36264;51.296;-0.602;2023-04-01T02:31:50;2.53;;;1.40;;
50355;SDS011;36264;51.296;-0.602;2023-04-01T02:34:17;2.10;;;1.35;;
50355;SDS011;36264;51.296;-0.602;2023-04-01T02:36:43;3.20;;;1.67;;
50355;SDS011;36264;51.296;-0.602;2023-04-01T02:39:09;2.90;;;1.55;;
50355;SDS011;36264;51.296;-0.602;2023-04-01T02:41:41;2.85;;;1.38;;
50355;SDS011;36264;51.296;-0.602;2023-04-01T02:44:09;2.70;;;1.50;;
50355;SDS011;36264;51.296;-0.602;2023-04-01T02:46:35;3.40;;;1.50;;
50355;SDS011;36264;51.296;-0.602;2023-04-01T02:49:02;2.33;;;1.33;;
50355;SDS011;36264;51.296;-0.602;2023-04-01T02:51:27;3.10;;;1.42;;
50355;SDS011;36264;51.296;-0.602;2023-04-01T02:53:53;1.67;;;1.20;;
50355;SDS011;36264;51.296;-0.602;2023-04-01T02:56:18;1.77;;;1.27;;
50355;SDS011;36264;51.296;-0.602;2023-04-01T02:58:45;3.00;;;1.30;;
50355;SDS011;36264;51.296;-0.602;2023-04-01T03:01:10;1.95;;;1.27;;
50355;SDS011;36264;51.296;-0.602;2023-04-01T03:03:36;2.47;;;1.27;;
50355;SDS011;36264;51.296;-0.602;2023-04-01T03:06:08;1.63;;;1.20;;
50355;SDS011;36264;51.296;-0.602;2023-04-01T03:08:35;2.70;;;1.25;;
50355;SDS011;36264;51.296;-0.602;2023-04-01T03:11:00;2.70;;;1.35;;
50355;SDS011;36264;51.296;-0.602;2023-04-01T03:13:26;2.45;;;1.35;;
50355;SDS011;36264;51.296;-0.602;2023-04-01T03:15:51;1.77;;;1.27;;
50355;SDS011;36264;51.296;-0.602;2023-04-01T03:18:18;1.83;;;1.13;;
50355;SDS011;36264;51.296;-0.602;2023-04-01T03:20:43;2.22;;;1.10;;
50355;SDS011;36264;51.296;-0.602;2023-04-01T03:23:08;1.20;;;1.10;;
50355;SDS011;36264;51.296;-0.602;2023-04-01T03:25:34;2.05;;;1.20;;
50355;SDS011;36264;51.296;-0.602;2023-04-01T03:27:59;1.55;;;1.20;;
50355;SDS011;36264;51.296;-0.602;2023-04-01T03:30:25;1.88;;;1.20;;
50355;SDS011;36264;51.296;-0.602;2023-04-01T03:32:51;1.85;;;1.25;;
50355;SDS011;36264;51.296;-0.602;2023-04-01T03:35:17;3.05;;;1.67;;
50355;SDS011;36264;51.296;-0.602;2023-04-01T03:37:43;1.75;;;1.10;;
50355;SDS011;36264;51.296;-0.602;2023-04-01T03:40:09;1.63;;;1.20;;
50355;SDS011;36264;51.296;-0.602;2023-04-01T03:42:35;1.67;;;1.25;;
50355;SDS011;36264;51.296;-0.602;2023-04-01T03:45:00;3.30;;;1.42;;
50355;SDS011;36264;51.296;-0.602;2023-04-01T03:47:26;1.77;;;1.20;;
50355;SDS011;36264;51.296;-0.602;2023-04-01T03:49:51;1.83;;;1.20;;
50355;SDS011;36264;51.296;-0.602;2023-04-01T03:52:16;1.80;;;1.20;;
50355;SDS011;36264;51.296;-0.602;2023-04-01T03:54:42;1.55;;;1.00;;
50355;SDS011;36264;51.296;-0.602;2023-04-01T03:57:07;1.80;;;1.10;;
50355;SDS011;36264;51.296;-0.602;2023-04-01T03:59:33;1.35;;;0.93;;
50355;SDS011;36264;51.296;-0.602;2023-04-01T04:01:58;0.88;;;0.82;;
50355;SDS011;36264;51.296;-0.602;2023-04-01T04:04:24;1.77;;;1.05;;
50355;SDS011;36264;51.296;-0.602;2023-04-01T04:06:49;2.38;;;0.95;;
50355;SDS011;36264;51.296;-0.602;2023-04-01T04:09:16;2.33;;;1.30;;
50355;SDS011;36264;51.296;-0.602;2023-04-01T04:11:41;1.58;;;1.00;;
50355;SDS011;36264;51.296;-0.602;2023-04-01T04:14:06;2.83;;;1.30;;
50355;SDS011;36264;51.296;-0.602;2023-04-01T04:16:34;1.25;;;0.95;;
50355;SDS011;36264;51.296;-0.602;2023-04-01T04:19:01;1.48;;;0.88;;
50355;SDS011;36264;51.296;-0.602;2023-04-01T04:21:27;1.92;;;1.00;;
50355;SDS011;36264;51.296;-0.602;2023-04-01T04:23:53;1.98;;;1.17;;
50355;SDS011;36264;51.296;-0.602;2023-04-01T04:26:18;1.63;;;1.20;;
50355;SDS011;36264;51.296;-0.602;2023-04-01T04:28:44;1.65;;;1.27;;
50355;SDS011;36264;51.296;-0.602;2023-04-01T04:31:09;1.73;;;1.20;;
50355;SDS011;36264;51.296;-0.602;2023-04-01T04:33:35;1.85;;;1.25;;
50355;SDS011;36264;51.296;-0.602;2023-04-01T04:36:01;3.58;;;1.60;;
50355;SDS011;36264;51.296;-0.602;2023-04-01T04:38:27;3.15;;;1.30;;
50355;SDS011;36264;51.296;-0.602;2023-04-01T04:40:53;2.67;;;1.63;;
50355;SDS011;36264;51.296;-0.602;2023-04-01T04:43:19;3.63;;;1.50;;
50355;SDS011;36264;51.296;-0.602;2023-04-01T04:45:45;2.97;;;1.92;;
50355;SDS011;36264;51.296;-0.602;2023-04-01T04:48:14;1.92;;;1.35;;
50355;SDS011;36264;51.296;-0.602;2023-04-01T04:50:45;3.25;;;1.90;;
50355;SDS011;36264;51.296;-0.602;2023-04-01T04:53:13;3.22;;;1.85;;
50355;SDS011;36264;51.296;-0.602;2023-04-01T04:55:43;3.40;;;1.98;;
50355;SDS011;36264;51.296;-0.602;2023-04-01T04:58:09;3.83;;;2.03;;
50355;SDS011;36264;51.296;-0.602;2023-04-01T05:00:35;4.00;;;2.30;;
50355;SDS011;36264;51.296;-0.602;2023-04-01T05:03:00;3.33;;;2.10;;
50355;SDS011;36264;51.296;-0.602;2023-04-01T05:05:25;5.47;;;2.40;;
50355;SDS011;36264;51.296;-0.602;2023-04-01T05:07:51;4.50;;;2.67;;
50355;SDS011;36264;51.296;-0.602;2023-04-01T05:10:16;3.60;;;2.40;;
50355;SDS011;36264;51.296;-0.602;2023-04-01T05:12:41;5.32;;;2.85;;
50355;SDS011;36264;51.296;-0.602;2023-04-01T05:15:07;5.40;;;2.83;;
50355;SDS011;36264;51.296;-0.602;2023-04-01T05:17:33;4.57;;;3.05;;
50355;SDS011;36264;51.296;-0.602;2023-04-01T05:19:59;4.40;;;2.83;;
50355;SDS011;36264;51.296;-0.602;2023-04-01T05:22:24;4.45;;;2.80;;
50355;SDS011;36264;51.296;-0.602;2023-04-01T05:24:50;4.30;;;2.80;;
50355;SDS011;36264;51.296;-0.602;2023-04-01T05:27:16;4.47;;;2.90;;
50355;SDS011;36264;51.296;-0.602;2023-04-01T05:29:41;4.93;;;2.58;;
50355;SDS011;36264;51.296;-0.602;2023-04-01T05:32:07;4.43;;;2.80;;
50355;SDS011;36264;51.296;-0.602;2023-04-01T05:34:32;4.95;;;2.75;;
50355;SDS011;36264;51.296;-0.602;2023-04-01T05:36:57;3.60;;;2.42;;
50355;SDS011;36264;51.296;-0.602;2023-04-01T05:39:23;4.82;;;3.20;;
50355;SDS011;36264;51.296;-0.602;2023-04-01T05:41:48;4.75;;;3.10;;
50355;SDS011;36264;51.296;-0.602;2023-04-01T05:44:14;4.95;;;2.97;;
50355;SDS011;36264;51.296;-0.602;2023-04-01T05:46:39;4.45;;;2.60;;
50355;SDS011;36264;51.296;-0.602;2023-04-01T05:49:04;4.50;;;2.80;;
50355;SDS011;36264;51.296;-0.602;2023-04-01T05:51:30;4.75;;;3.25;;
50355;SDS011;36264;51.296;-0.602;2023-04-01T05:53:55;6.35;;;3.20;;
50355;SDS011;36264;51.296;-0.602;2023-04-01T05:56:20;5.05;;;3.25;;
50355;SDS011;36264;51.296;-0.602;2023-04-01T05:58:50;5.28;;;3.08;;
50355;SDS011;36264;51.296;-0.602;2023-04-01T06:01:16;5.18;;;3.13;;
50355;SDS011;36264;51.296;-0.602;2023-04-01T06:03:43;4.43;;;2.80;;
50355;SDS011;36264;51.296;-0.602;2023-04-01T06:06:11;4.63;;;3.03;;
50355;SDS011;36264;51.296;-0.602;2023-04-01T06:08:40;5.22;;;3.22;;
50355;SDS011;36264;51.296;-0.602;2023-04-01T06:11:12;4.53;;;3.00;;
50355;SDS011;36264;51.296;-0.602;2023-04-01T06:27:18;4.20;;;2.70;;
50355;SDS011;36264;51.296;-0.602;2023-04-01T06:38:09;4.60;;;2.80;;
50355;SDS011;36264;51.296;-0.602;2023-04-01T06:46:19;4.13;;;2.50;;
50355;SDS011;36264;51.296;-0.602;2023-04-01T06:49:04;4.10;;;2.78;;
50355;SDS011;36264;51.296;-0.602;2023-04-01T06:54:39;4.63;;;2.80;;
50355;SDS011;36264;51.296;-0.602;2023-04-01T06:59:56;4.72;;;2.78;;
50355;SDS011;36264;51.296;-0.602;2023-04-01T07:02:28;4.18;;;2.78;;
50355;SDS011;36264;51.296;-0.602;2023-04-01T07:05:01;6.88;;;3.20;;
50355;SDS011;36264;51.296;-0.602;2023-04-01T07:07:37;4.50;;;2.65;;
50355;SDS011;36264;51.296;-0.602;2023-04-01T07:10:13;4.43;;;2.80;;
50355;SDS011;36264;51.296;-0.602;2023-04-01T07:12:46;5.20;;;3.17;;
50355;SDS011;36264;51.296;-0.602;2023-04-01T07:15:59;4.43;;;3.00;;
50355;SDS011;36264;51.296;-0.602;2023-04-01T07:18:15;4.82;;;3.28;;
50355;SDS011;36264;51.296;-0.602;2023-04-01T07:20:49;5.15;;;3.20;;
50355;SDS011;36264;51.296;-0.602;2023-04-01T07:23:20;4.82;;;3.10;;
50355;SDS011;36264;51.296;-0.602;2023-04-01T07:26:00;5.10;;;3.17;;
50355;SDS011;36264;51.296;-0.602;2023-04-01T07:28:31;5.60;;;3.58;;
50355;SDS011;36264;51.296;-0.602;2023-04-01T07:33:58;6.25;;;3.00;;
50355;SDS011;36264;51.296;-0.602;2023-04-01T07:36:39;5.00;;;3.30;;
50355;SDS011;36264;51.296;-0.602;2023-04-01T07:39:17;7.45;;;3.50;;
50355;SDS011;36264;51.296;-0.602;2023-04-01T07:47:45;6.55;;;3.45;;
50355;SDS011;36264;51.296;-0.602;2023-04-01T07:56:02;5.82;;;3.70;;
50355;SDS011;36264;51.296;-0.602;2023-04-01T07:58:35;5.63;;;3.50;;
50355;SDS011;36264;51.296;-0.602;2023-04-01T08:01:17;6.03;;;3.42;;
50355;SDS011;36264;51.296;-0.602;2023-04-01T08:07:04;5.28;;;3.30;;
50355;SDS011;36264;51.296;-0.602;2023-04-01T08:09:39;4.90;;;3.33;;
50355;SDS011;36264;51.296;-0.602;2023-04-01T08:23:28;5.72;;;4.03;;
50355;SDS011;36264;51.296;-0.602;2023-04-01T08:25:58;7.70;;;3.90;;
50355;SDS011;36264;51.296;-0.602;2023-04-01T08:31:29;6.15;;;3.97;;
50355;SDS011;36264;51.296;-0.602;2023-04-01T08:34:14;6.50;;;3.90;;
50355;SDS011;36264;51.296;-0.602;2023-04-01T08:36:45;6.57;;;4.25;;
50355;SDS011;36264;51.296;-0.602;2023-04-01T08:39:24;6.63;;;4.03;;
50355;SDS011;36264;51.296;-0.602;2023-04-01T08:44:43;5.20;;;3.30;;
50355;SDS011;36264;51.296;-0.602;2023-04-01T08:52:36;5.05;;;3.17;;
50355;SDS011;36264;51.296;-0.602;2023-04-01T09:00:57;6.70;;;3.17;;
50355;SDS011;36264;51.296;-0.602;2023-04-01T09:06:40;3.90;;;2.90;;
50355;SDS011;36264;51.296;-0.602;2023-04-01T09:28:01;5.25;;;2.92;;
50355;SDS011;36264;51.296;-0.602;2023-04-01T09:29:55;4.80;;;3.08;;
50355;SDS011;36264;51.296;-0.602;2023-04-01T09:32:40;4.63;;;3.10;;
50355;SDS011;36264;51.296;-0.602;2023-04-01T09:35:47;4.53;;;3.00;;
50355;SDS011;36264;51.296;-0.602;2023-04-01T09:41:11;4.60;;;2.97;;
50355;SDS011;36264;51.296;-0.602;2023-04-01T09:46:19;5.60;;;2.70;;
50355;SDS011;36264;51.296;-0.602;2023-04-01T09:48:50;5.03;;;2.78;;
50355;SDS011;36264;51.296;-0.602;2023-04-01T09:54:33;4.68;;;2.97;;
50355;SDS011;36264;51.296;-0.602;2023-04-01T09:57:21;5.72;;;3.10;;
50355;SDS011;36264;51.296;-0.602;2023-04-01T10:13:45;4.72;;;2.92;;
50355;SDS011;36264;51.296;-0.602;2023-04-01T10:16:34;4.53;;;2.90;;
50355;SDS011;36264;51.296;-0.602;2023-04-01T10:43:52;4.30;;;2.50;;
50355;SDS011;36264;51.296;-0.602;2023-04-01T10:52:39;3.67;;;2.15;;
50355;SDS011;36264;51.296;-0.602;2023-04-01T11:09:00;5.10;;;2.25;;
50355;SDS011;36264;51.296;-0.602;2023-04-01T11:12:13;4.25;;;2.05;;
50355;SDS011;36264;51.296;-0.602;2023-04-01T11:17:41;4.18;;;1.92;;
50355;SDS011;36264;51.296;-0.602;2023-04-01T11:20:28;3.20;;;1.80;;
50355;SDS011;36264;51.296;-0.602;2023-04-01T11:31:04;3.80;;;2.13;;
50355;SDS011;36264;51.296;-0.602;2023-04-01T11:33:57;3.20;;;2.10;;
50355;SDS011;36264;51.296;-0.602;2023-04-01T11:37:03;3.38;;;1.90;;
50355;SDS011;36264;51.296;-0.602;2023-04-01T11:42:33;4.57;;;2.00;;
50355;SDS011;36264;51.296;-0.602;2023-04-01T11:45:20;3.20;;;1.77;;
50355;SDS011;36264;51.296;-0.602;2023-04-01T11:50:52;3.80;;;2.15;;
50355;SDS011;36264;51.296;-0.602;2023-04-01T11:56:19;3.72;;;2.10;;
50355;SDS011;36264;51.296;-0.602;2023-04-01T12:51:42;5.50;;;3.33;;
50355;SDS011;36264;51.296;-0.602;2023-04-01T13:16:31;5.53;;;2.65;;
50355;SDS011;36264;51.296;-0.602;2023-04-01T13:19:06;4.20;;;2.33;;
50355;SDS011;36264;51.296;-0.602;2023-04-01T13:39:42;4.15;;;2.35;;
50355;SDS011;36264;51.296;-0.602;2023-04-01T14:00:54;3.95;;;2.30;;
50355;SDS011;36264;51.296;-0.602;2023-04-01T14:39:49;4.47;;;2.42;;
50355;SDS011;36264;51.296;-0.602;2023-04-01T14:45:39;3.35;;;2.00;;
50355;SDS011;36264;51.296;-0.602;2023-04-01T14:50:16;5.68;;;2.22;;
50355;SDS011;36264;51.296;-0.602;2023-04-01T14:55:27;5.82;;;2.13;;
50355;SDS011;36264;51.296;-0.602;2023-04-01T14:58:19;4.28;;;2.20;;
50355;SDS011;36264;51.296;-0.602;2023-04-01T15:01:01;4.80;;;1.75;;
50355;SDS011;36264;51.296;-0.602;2023-04-01T15:03:40;3.28;;;1.90;;
50355;SDS011;36264;51.296;-0.602;2023-04-01T15:11:48;3.97;;;1.60;;
50355;SDS011;36264;51.296;-0.602;2023-04-01T15:25:31;5.25;;;1.90;;
50355;SDS011;36264;51.296;-0.602;2023-04-01T15:28:17;3.00;;;1.60;;
50355;SDS011;36264;51.296;-0.602;2023-04-01T15:30:56;3.63;;;1.77;;
50355;SDS011;36264;51.296;-0.602;2023-04-01T15:33:32;4.53;;;1.88;;
50355;SDS011;36264;51.296;-0.602;2023-04-01T15:36:19;5.03;;;2.00;;
50355;SDS011;36264;51.296;-0.602;2023-04-01T15:44:44;4.00;;;1.80;;
50355;SDS011;36264;51.296;-0.602;2023-04-01T15:58:29;3.75;;;1.83;;
50355;SDS011;36264;51.296;-0.602;2023-04-01T16:03:51;2.85;;;1.55;;
50355;SDS011;36264;51.296;-0.602;2023-04-01T16:11:53;3.08;;;1.80;;
50355;SDS011;36264;51.296;-0.602;2023-04-01T16:22:08;2.95;;;1.70;;
50355;SDS011;36264;51.296;-0.602;2023-04-01T16:27:54;2.83;;;1.75;;
50355;SDS011;36264;51.296;-0.602;2023-04-01T16:30:38;3.35;;;1.92;;
50355;SDS011;36264;51.296;-0.602;2023-04-01T16:33:17;4.10;;;1.83;;
50355;SDS011;36264;51.296;-0.602;2023-04-01T16:41:36;4.50;;;2.10;;
50355;SDS011;36264;51.296;-0.602;2023-04-01T16:44:13;3.75;;;1.90;;
50355;SDS011;36264;51.296;-0.602;2023-04-01T16:49:40;3.65;;;1.80;;
50355;SDS011;36264;51.296;-0.602;2023-04-01T16:59:54;2.92;;;1.80;;
50355;SDS011;36264;51.296;-0.602;2023-04-01T17:02:25;3.75;;;1.60;;
50355;SDS011;36264;51.296;-0.602;2023-04-01T17:07:48;4.10;;;2.13;;
50355;SDS011;36264;51.296;-0.602;2023-04-01T17:16:20;2.97;;;1.80;;
50355;SDS011;36264;51.296;-0.602;2023-04-01T17:21:57;2.10;;;1.50;;
50355;SDS011;36264;51.296;-0.602;2023-04-01T17:33:10;3.25;;;2.00;;
50355;SDS011;36264;51.296;-0.602;2023-04-01T18:05:22;3.92;;;2.58;;
50355;SDS011;36264;51.296;-0.602;2023-04-01T18:13:22;3.58;;;2.03;;
50355;SDS011;36264;51.296;-0.602;2023-04-01T18:21:23;5.50;;;2.03;;
50355;SDS011;36264;51.296;-0.602;2023-04-01T18:26:50;4.45;;;2.20;;
50355;SDS011;36264;51.296;-0.602;2023-04-01T18:37:45;3.90;;;2.00;;
50355;SDS011;36264;51.296;-0.602;2023-04-01T18:43:09;3.13;;;1.70;;
50355;SDS011;36264;51.296;-0.602;2023-04-01T18:45:51;3.60;;;1.80;;
50355;SDS011;36264;51.296;-0.602;2023-04-01T18:51:14;2.45;;;1.60;;
50355;SDS011;36264;51.296;-0.602;2023-04-01T18:53:55;3.42;;;1.92;;
50355;SDS011;36264;51.296;-0.602;2023-04-01T18:56:35;4.47;;;1.90;;
50355;SDS011;36264;51.296;-0.602;2023-04-01T19:01:48;3.55;;;1.83;;
50355;SDS011;36264;51.296;-0.602;2023-04-01T19:04:38;3.40;;;1.77;;
50355;SDS011;36264;51.296;-0.602;2023-04-01T19:18:25;3.10;;;1.70;;
50355;SDS011;36264;51.296;-0.602;2023-04-01T19:21:01;2.92;;;1.80;;
50355;SDS011;36264;51.296;-0.602;2023-04-01T19:23:52;3.80;;;1.92;;
50355;SDS011;36264;51.296;-0.602;2023-04-01T19:26:40;3.92;;;1.83;;
50355;SDS011;36264;51.296;-0.602;2023-04-01T19:40:31;2.60;;;1.70;;
50355;SDS011;36264;51.296;-0.602;2023-04-01T19:43:25;3.42;;;1.73;;
50355;SDS011;36264;51.296;-0.602;2023-04-01T19:54:01;3.10;;;1.90;;
50355;SDS011;36264;51.296;-0.602;2023-04-01T19:56:41;4.90;;;1.90;;
50355;SDS011;36264;51.296;-0.602;2023-04-01T20:04:55;4.00;;;1.90;;
50355;SDS011;36264;51.296;-0.602;2023-04-01T20:07:31;3.80;;;1.75;;
50355;SDS011;36264;51.296;-0.602;2023-04-01T20:10:10;3.75;;;1.73;;
50355;SDS011;36264;51.296;-0.602;2023-04-01T20:15:54;3.17;;;1.80;;
50355;SDS011;36264;51.296;-0.602;2023-04-01T20:18:18;4.15;;;1.80;;
50355;SDS011;36264;51.296;-0.602;2023-04-01T20:20:58;5.75;;;1.98;;
50355;SDS011;36264;51.296;-0.602;2023-04-01T20:23:56;3.67;;;1.85;;
50355;SDS011;36264;51.296;-0.602;2023-04-01T20:26:35;5.97;;;2.00;;
50355;SDS011;36264;51.296;-0.602;2023-04-01T20:32:18;2.95;;;1.80;;
50355;SDS011;36264;51.296;-0.602;2023-04-01T20:37:40;3.17;;;1.90;;
50355;SDS011;36264;51.296;-0.602;2023-04-01T20:40:26;2.85;;;1.80;;
50355;SDS011;36264;51.296;-0.602;2023-04-01T20:51:15;4.00;;;2.20;;
50355;SDS011;36264;51.296;-0.602;2023-04-01T20:54:17;3.72;;;1.90;;
50355;SDS011;36264;51.296;-0.602;2023-04-01T20:56:57;4.03;;;2.17;;
50355;SDS011;36264;51.296;-0.602;2023-04-01T21:07:55;6.60;;;2.63;;
50355;SDS011;36264;51.296;-0.602;2023-04-01T21:10:33;5.10;;;2.40;;
50355;SDS011;36264;51.296;-0.602;2023-04-01T21:21:05;6.18;;;2.10;;
50355;SDS011;36264;51.296;-0.602;2023-04-01T21:26:53;4.65;;;2.10;;
50355;SDS011;36264;51.296;-0.602;2023-04-01T21:29:51;3.07;;;1.80;;
50355;SDS011;36264;51.296;-0.602;2023-04-01T21:43:49;4.25;;;2.10;;
50355;SDS011;36264;51.296;-0.602;2023-04-01T21:52:00;2.88;;;1.90;;
50355;SDS011;36264;51.296;-0.602;2023-04-01T22:04:50;4.20;;;2.03;;
50355;SDS011;36264;51.296;-0.602;2023-04-01T22:10:43;2.80;;;1.80;;
50355;SDS011;36264;51.296;-0.602;2023-04-01T22:18:46;2.25;;;1.48;;
50355;SDS011;36264;51.296;-0.602;2023-04-01T22:21:33;2.70;;;1.60;;
50355;SDS011;36264;51.296;-0.602;2023-04-01T22:27:03;2.53;;;1.38;;
50355;SDS011;36264;51.296;-0.602;2023-04-01T22:30:13;2.50;;;1.40;;
50355;SDS011;36264;51.296;-0.602;2023-04-01T22:32:50;3.28;;;1.42;;
50355;SDS011;36264;51.296;-0.602;2023-04-01T22:36:22;2.55;;;1.40;;
50355;SDS011;36264;51.296;-0.602;2023-04-01T22:44:24;1.63;;;1.30;;
50355;SDS011;36264;51.296;-0.602;2023-04-01T22:49:29;1.90;;;1.50;;
50355;SDS011;36264;51.296;-0.602;2023-04-01T22:52:10;2.83;;;1.67;;
50355;SDS011;36264;51.296;-0.602;2023-04-01T22:54:46;2.03;;;1.30;;
50355;SDS011;36264;51.296;-0.602;2023-04-01T23:00:06;2.30;;;1.35;;
50355;SDS011;36264;51.296;-0.602;2023-04-01T23:02:46;2.67;;;1.40;;
50355;SDS011;36264;51.296;-0.602;2023-04-01T23:05:25;2.75;;;1.40;;
50355;SDS011;36264;51.296;-0.602;2023-04-01T23:08:00;2.67;;;1.30;;
50355;SDS011;36264;51.296;-0.602;2023-04-01T23:10:52;2.47;;;1.30;;
50355;SDS011;36264;51.296;-0.602;2023-04-01T23:13:31;1.50;;;1.10;;
50355;SDS011;36264;51.296;-0.602;2023-04-01T23:16:02;2.70;;;1.50;;
50355;SDS011;36264;51.296;-0.602;2023-04-01T23:18:45;2.10;;;1.20;;
50355;SDS011;36264;51.296;-0.602;2023-04-01T23:21:24;2.13;;;1.20;;
50355;SDS011;36264;51.296;-0.602;2023-04-01T23:26:47;2.70;;;1.23;;
50355;SDS011;36264;51.296;-0.602;2023-04-01T23:29:28;2.22;;;1.30;;
50355;SDS011;36264;51.296;-0.602;2023-04-01T23:37:10;2.60;;;1.00;;
50355;SDS011;36264;51.296;-0.602;2023-04-01T23:39:39;2.65;;;1.40;;
50355;SDS011;36264;51.296;-0.602;2023-04-01T23:42:07;2.42;;;1.25;;
50355;SDS011;36264;51.296;-0.602;2023-04-01T23:44:37;2.03;;;1.20;;
50355;SDS011;36264;51.296;-0.602;2023-04-01T23:47:03;1.60;;;1.10;;
50355;SDS011;36264;51.296;-0.602;2023-04-01T23:49:41;2.17;;;1.20;;
50355;SDS011;36264;51.296;-0.602;2023-04-01T23:52:17;3.45;;;2.03;;
50355;SDS011;36264;51.296;-0.602;2023-04-01T23:55:03;2.63;;;1.30;;
